Flood From: 22-02-2018 16:00 Until: 23-02-2018 16:00 warning for: Flood Level: Yellow info button

Although rather usual in this region, locally or potentially dangerous phenomena are expected. (such as local winds, summer thunderstorms, rising streams or high waves) Be aware and pay attention to the latest weather updates, especially if you carry out activities exposed to weather or close to a stream or shoreline. 


Meteo18 Weather Cam more information Meteo18 Weather Cam


Thunder radar more information blitzortung!


Rain radar more information rain snow radar


Visit our other weather sites:

Template documentation
and downloads

And another site



Weather Underground History page Text

Daily Summary for January 7, 2017 Units:  English    Metric   Both
« Previous Day
Next Day »
Daily Weekly Monthly Yearly Custom
  High: Low: Average:
Temperature: TemperatureC °F -8.2 °F -3.5 °F
Dew Point: DewpointC °F -9.3 °F -5.5 °F
Humidity: Humidity % 69 % 86 %
Wind Speed: WindSpeedKMH mph 0.0 mph 1.2 mph
Wind Gust: WindSpeedGustKMH mph - -
Wind:- - SW
Pressure: PressurehPa in 1033.7 in -
Precipitation: 0.0 in    
Historical Graphs
 
 
Tabular Data for January 7, 2017
Time Temperature Dew Point Pressure Wind Wind Speed Wind Gust Humidity Rainfall Rate (Hourly)
TemperatureC °F DewpointC °F PressurehPa in Calm     Humidity % HourlyPrecipMM in
00:07 -4.7 °F -6.7 °F 1037.1 in NW 1.6 mph 3.2 mph 86 % 0.0 in
00:17 -4.7 °F -6.7 °F 1037.1 in NW 1.6 mph 4.8 mph 86 % 0.0 in
00:22 -4.7 °F -6.8 °F 1036.8 in Calm   4.8 mph 85 % 0.0 in
00:27 -4.8 °F -6.8 °F 1036.8 in Calm   4.8 mph 86 % 0.0 in
00:32 -4.9 °F -6.9 °F 1036.8 in NNE 1.6 mph 3.2 mph 86 % 0.0 in
00:37 -4.9 °F -6.9 °F 1036.8 in Calm   1.6 mph 86 % 0.0 in
00:47 -4.9 °F -6.9 °F 1036.8 in Calm   1.6 mph 86 % 0.0 in
00:52 -4.9 °F -6.9 °F 1036.8 in Calm   1.6 mph 86 % 0.0 in
00:57 -4.9 °F -6.9 °F 1036.8 in North 1.6 mph 3.2 mph 86 % 0.0 in
01:02 -5.0 °F -7.0 °F 1036.8 in NNE 3.2 mph 3.2 mph 86 % 0.0 in
01:07 -5.1 °F -7.1 °F 1036.8 in Calm   3.2 mph 86 % 0.0 in
01:12 -5.3 °F -7.1 °F 1036.8 in Calm   3.2 mph 87 % 0.0 in
01:17 -5.3 °F -7.1 °F 1036.8 in Calm   3.2 mph 87 % 0.0 in
01:22 -5.3 °F -7.1 °F 1036.8 in Calm   3.2 mph 87 % 0.0 in
01:27 -5.3 °F -7.1 °F 1036.8 in Calm   1.6 mph 87 % 0.0 in
01:32 -5.4 °F -7.4 °F 1036.5 in Calm   1.6 mph 86 % 0.0 in
01:37 -5.6 °F -7.4 °F 1036.8 in Calm   1.6 mph 87 % 0.0 in
01:42 -5.6 °F -7.4 °F 1036.5 in Calm   1.6 mph 87 % 0.0 in
01:47 -5.5 °F -7.3 °F 1036.8 in Calm     87 % 0.0 in
01:52 -5.6 °F -7.4 °F 1036.8 in Calm     87 % 0.0 in
01:57 -5.8 °F -7.6 °F 1036.8 in Calm     87 % 0.0 in
02:02 -5.8 °F -7.5 °F 1036.8 in Calm     88 % 0.0 in
02:12 -5.7 °F -7.4 °F 1036.8 in Calm   1.6 mph 88 % 0.0 in
02:17 -5.6 °F -7.4 °F 1036.8 in Calm   1.6 mph 87 % 0.0 in
02:22 -5.8 °F -7.5 °F 1036.8 in Calm   1.6 mph 88 % 0.0 in
02:27 -5.8 °F -7.5 °F 1036.8 in Calm   1.6 mph 88 % 0.0 in
02:37 -5.8 °F -7.5 °F 1036.8 in Calm   1.6 mph 88 % 0.0 in
02:42 -5.7 °F -7.4 °F 1036.5 in Calm   1.6 mph 88 % 0.0 in
02:47 -5.9 °F -7.7 °F 1036.5 in Calm   1.6 mph 87 % 0.0 in
02:52 -6.1 °F -7.8 °F 1036.5 in Calm   1.6 mph 88 % 0.0 in
02:57 -6.1 °F -7.6 °F 1036.5 in Calm   1.6 mph 89 % 0.0 in
03:02 -6.1 °F -7.6 °F 1036.8 in Calm   1.6 mph 89 % 0.0 in
03:07 -6.2 °F -7.7 °F 1036.8 in Calm   1.6 mph 89 % 0.0 in
03:12 -6.2 °F -7.7 °F 1036.8 in Calm     89 % 0.0 in
03:17 -6.2 °F -7.7 °F 1036.8 in Calm   1.6 mph 89 % 0.0 in
03:22 -6.2 °F -7.7 °F 1036.8 in Calm   1.6 mph 89 % 0.0 in
03:27 -6.2 °F -7.7 °F 1036.8 in Calm   1.6 mph 89 % 0.0 in
03:32 -6.2 °F -7.7 °F 1036.5 in Calm   1.6 mph 89 % 0.0 in
03:42 -6.1 °F -7.6 °F 1036.5 in Calm   1.6 mph 89 % 0.0 in
03:47 -6.1 °F -7.6 °F 1036.5 in Calm   1.6 mph 89 % 0.0 in
03:52 -6.1 °F -7.8 °F 1036.5 in Calm   1.6 mph 88 % 0.0 in
03:57 -6.2 °F -7.9 °F 1036.5 in Calm     88 % 0.0 in
04:02 -6.4 °F -7.9 °F 1036.5 in Calm   1.6 mph 89 % 0.0 in
04:07 -6.6 °F -8.1 °F 1036.5 in Calm   1.6 mph 89 % 0.0 in
04:12 -6.7 °F -8.1 °F 1036.5 in Calm   1.6 mph 90 % 0.0 in
04:17 -6.8 °F -8.2 °F 1036.5 in WNW 1.6 mph 1.6 mph 90 % 0.0 in
04:22 -7.0 °F -8.2 °F 1036.8 in Calm   1.6 mph 91 % 0.0 in
04:27 -6.9 °F -8.1 °F 1036.8 in Calm   1.6 mph 91 % 0.0 in
04:32 -6.9 °F -8.1 °F 1036.8 in Calm   1.6 mph 91 % 0.0 in
04:37 -6.8 °F -8.2 °F 1036.5 in Calm     90 % 0.0 in
04:42 -6.9 °F -8.3 °F 1036.5 in Calm     90 % 0.0 in
04:47 -7.2 °F -8.6 °F 1036.5 in Calm     90 % 0.0 in
04:52 -7.1 °F -8.2 °F 1036.5 in Calm   1.6 mph 92 % 0.0 in
05:02 -7.0 °F -8.2 °F 1036.5 in WNW 1.6 mph 1.6 mph 91 % 0.0 in
05:07 -7.2 °F -8.6 °F 1036.5 in Calm   1.6 mph 90 % 0.0 in
05:12 -7.5 °F -8.7 °F 1036.5 in Calm   1.6 mph 91 % 0.0 in
05:17 -7.4 °F -8.5 °F 1036.5 in Calm   1.6 mph 92 % 0.0 in
05:22 -7.2 °F -8.3 °F 1036.5 in Calm     92 % 0.0 in
05:27 -7.4 °F -8.6 °F 1036.5 in Calm     91 % 0.0 in
05:32 -7.3 °F -8.4 °F 1036.5 in Calm     92 % 0.0 in
05:37 -7.2 °F -8.3 °F 1036.5 in Calm     92 % 0.0 in
05:42 -7.1 °F -8.2 °F 1036.5 in Calm     92 % 0.0 in
05:52 -7.1 °F -8.3 °F 1036.5 in Calm     91 % 0.0 in
05:57 -7.1 °F -8.3 °F 1036.5 in Calm     91 % 0.0 in
06:02 -7.2 °F -8.4 °F 1036.5 in Calm     91 % 0.0 in
06:07 -7.2 °F -8.3 °F 1036.5 in Calm     92 % 0.0 in
06:12 -7.2 °F -8.3 °F 1036.5 in Calm     92 % 0.0 in
06:17 -7.3 °F -8.4 °F 1036.5 in Calm     92 % 0.0 in
06:22 -7.3 °F -8.4 °F 1036.1 in Calm     92 % 0.0 in
06:32 -7.5 °F -8.6 °F 1036.5 in Calm     92 % 0.0 in
06:42 -7.7 °F -8.8 °F 1036.1 in Calm     92 % 0.0 in
06:47 -7.9 °F -9.0 °F 1036.1 in Calm     92 % 0.0 in
06:52 -7.9 °F -9.0 °F 1036.1 in Calm     92 % 0.0 in
07:02 -7.9 °F -8.8 °F 1036.5 in Calm     93 % 0.0 in
07:12 -7.7 °F -8.6 °F 1036.5 in Calm     93 % 0.0 in
07:17 -7.6 °F -8.5 °F 1036.5 in Calm     93 % 0.0 in
07:22 -7.7 °F -8.8 °F 1036.5 in Calm     92 % 0.0 in
07:27 -7.8 °F -8.7 °F 1036.5 in Calm     93 % 0.0 in
07:32 -7.7 °F -8.6 °F 1036.5 in Calm     93 % 0.0 in
07:37 -7.7 °F -8.6 °F 1036.5 in Calm     93 % 0.0 in
07:42 -7.8 °F -8.9 °F 1036.5 in Calm     92 % 0.0 in
07:47 -7.7 °F -8.6 °F 1036.5 in Calm     93 % 0.0 in
07:52 -7.9 °F -9.0 °F 1036.5 in Calm     92 % 0.0 in
07:57 -8.0 °F -9.1 °F 1036.5 in Calm     92 % 0.0 in
08:02 -8.0 °F -8.9 °F 1036.8 in Calm     93 % 0.0 in
08:07 -7.9 °F -8.8 °F 1036.5 in Calm     93 % 0.0 in
08:12 -7.9 °F -8.8 °F 1036.8 in North 1.6 mph   93 % 0.0 in
08:17 -7.8 °F -8.7 °F 1036.8 in Calm   1.6 mph 93 % 0.0 in
08:22 -7.6 °F -8.5 °F 1036.8 in Calm   1.6 mph 93 % 0.0 in
08:27 -7.7 °F -8.8 °F 1036.8 in Calm   1.6 mph 92 % 0.0 in
08:32 -7.9 °F -9.0 °F 1036.8 in Calm   1.6 mph 92 % 0.0 in
08:37 -8.1 °F -9.2 °F 1036.8 in Calm   1.6 mph 92 % 0.0 in
08:42 -8.2 °F -9.3 °F 1037.1 in Calm   1.6 mph 92 % 0.0 in
08:47 -8.1 °F -9.0 °F 1037.1 in Calm     93 % 0.0 in
08:52 -8.1 °F -9.0 °F 1037.1 in Calm     93 % 0.0 in
08:57 -8.1 °F -9.0 °F 1036.8 in Calm     93 % 0.0 in
09:02 -8.1 °F -9.0 °F 1036.8 in Calm     93 % 0.0 in
09:07 -8.0 °F -8.9 °F 1036.8 in Calm     93 % 0.0 in
09:12 -7.8 °F -8.7 °F 1036.8 in Calm     93 % 0.0 in
09:17 -7.4 °F -8.3 °F 1036.8 in Calm     93 % 0.0 in
09:22 -7.0 °F -7.9 °F 1037.1 in Calm     93 % 0.0 in
09:32 -6.8 °F -7.9 °F 1037.1 in Calm     92 % 0.0 in
09:37 -6.4 °F -7.5 °F 1037.1 in Calm     92 % 0.0 in
09:42 -5.8 °F -6.9 °F 1037.1 in Calm     92 % 0.0 in
09:47 -5.8 °F -7.2 °F 1037.1 in Calm     90 % 0.0 in
09:52 -5.5 °F -6.9 °F 1037.1 in Calm     90 % 0.0 in
10:02 -5.4 °F -7.2 °F 1036.8 in Calm   1.6 mph 87 % 0.0 in
10:07 -5.6 °F -7.3 °F 1036.8 in Calm   1.6 mph 88 % 0.0 in
10:12 -5.4 °F -6.9 °F 1036.8 in Calm   1.6 mph 89 % 0.0 in
10:17 -5.1 °F -6.5 °F 1036.8 in Calm   1.6 mph 90 % 0.0 in
10:27 -4.0 °F -6.0 °F 1036.8 in Calm     86 % 0.0 in
10:32 -3.7 °F -5.9 °F 1037.1 in Calm     85 % 0.0 in
10:37 -3.2 °F -5.2 °F 1037.1 in Calm     86 % 0.0 in
10:42 -3.1 °F -5.4 °F 1036.8 in Calm     84 % 0.0 in
10:52 -2.6 °F -5.2 °F 1037.1 in Calm     82 % 0.0 in
10:57 -2.6 °F -5.6 °F 1037.1 in Calm     80 % 0.0 in
11:02 -3.1 °F -5.9 °F 1037.1 in Calm   1.6 mph 81 % 0.0 in
11:12 -3.1 °F -5.7 °F 1036.8 in Calm   1.6 mph 82 % 0.0 in
11:22 -2.9 °F -5.1 °F 1036.8 in Calm   3.2 mph 85 % 0.0 in
11:27 -2.8 °F -5.0 °F 1036.5 in Calm   3.2 mph 85 % 0.0 in
11:37 -2.6 °F -5.1 °F 1036.5 in SSE 1.6 mph 3.2 mph 83 % 0.0 in
11:42 -2.4 °F -4.9 °F 1036.5 in South 4.8 mph 4.8 mph 83 % 0.0 in
11:47 -2.3 °F -5.0 °F 1036.5 in South 3.2 mph 6.4 mph 82 % 0.0 in
11:57 -2.2 °F -4.9 °F 1036.5 in Calm   6.4 mph 82 % 0.0 in
12:02 -1.9 °F -4.6 °F 1036.5 in SSW 1.6 mph 4.8 mph 82 % 0.0 in
12:07 -1.7 °F -4.5 °F 1036.5 in Calm   4.8 mph 81 % 0.0 in
12:17 -1.7 °F -4.7 °F 1036.5 in SSE 1.6 mph 3.2 mph 80 % 0.0 in
12:22 -1.8 °F -5.0 °F 1036.5 in SW 1.6 mph 6.4 mph 79 % 0.0 in
12:27 -1.8 °F -4.6 °F 1036.5 in SW 1.6 mph 6.4 mph 81 % 0.0 in
12:37 -1.7 °F -4.7 °F 1036.5 in South 1.6 mph 4.8 mph 80 % 0.0 in
12:47 -1.3 °F -4.3 °F 1036.5 in SSW 1.6 mph 4.8 mph 80 % 0.0 in
12:57 -1.2 °F -4.7 °F 1035.8 in SSW 4.8 mph 6.4 mph 77 % 0.0 in
13:02 -1.0 °F -4.5 °F 1035.8 in SSW 4.8 mph 6.4 mph 77 % 0.0 in
13:07 -1.0 °F -4.5 °F 1035.8 in SW 6.4 mph 6.4 mph 77 % 0.0 in
13:12 -0.9 °F -4.4 °F 1035.8 in SSW 3.2 mph 6.4 mph 77 % 0.0 in
13:17 -0.9 °F -4.6 °F 1036.1 in SSW 1.6 mph 6.4 mph 76 % 0.0 in
13:27 -0.6 °F -4.3 °F 1035.8 in SSW 1.6 mph 4.8 mph 76 % 0.0 in
13:32 -0.6 °F -4.3 °F 1035.4 in SSW 3.2 mph 4.8 mph 76 % 0.0 in
13:37 -0.4 °F -3.9 °F 1035.4 in SSE 1.6 mph 4.8 mph 77 % 0.0 in
13:42 -0.4 °F -4.1 °F 1035.8 in SSE 4.8 mph 4.8 mph 76 % 0.0 in
13:47 -0.4 °F -4.3 °F 1035.4 in SSE 3.2 mph 4.8 mph 75 % 0.0 in
13:52 -0.4 °F -4.5 °F 1035.4 in SSE 1.6 mph 6.4 mph 74 % 0.0 in
13:57 -0.2 °F -4.6 °F 1035.8 in South 3.2 mph 6.4 mph 72 % 0.0 in
14:02 -0.1 °F -4.5 °F 1035.4 in SW 3.2 mph 6.4 mph 72 % 0.0 in
14:07 -0.2 °F -5.2 °F 1035.8 in Calm   4.8 mph 69 % 0.0 in
14:12 -0.1 °F -4.9 °F 1035.4 in Calm   4.8 mph 70 % 0.0 in
14:17 -0.1 °F -4.9 °F 1035.4 in SW 1.6 mph 4.8 mph 70 % 0.0 in
14:22 0.1 °F -4.7 °F 1035.4 in SSW 1.6 mph 3.2 mph 70 % 0.0 in
14:32 0.0 °F -4.4 °F 1035.4 in SW 3.2 mph 4.8 mph 72 % 0.0 in
14:37 0.1 °F -4.3 °F 1035.4 in SSE 1.6 mph 6.4 mph 72 % 0.0 in
14:42 0.1 °F -4.3 °F 1035.1 in SSE 1.6 mph 6.4 mph 72 % 0.0 in
14:47 0.1 °F -4.3 °F 1035.1 in SW 3.2 mph 6.4 mph 72 % 0.0 in
14:57 0.2 °F -3.9 °F 1035.1 in SW 3.2 mph 8.0 mph 74 % 0.0 in
15:02 0.2 °F -4.3 °F 1035.1 in SSW 1.6 mph 8.0 mph 72 % 0.0 in
15:07 0.2 °F -4.4 °F 1034.8 in SSW 3.2 mph 8.0 mph 71 % 0.0 in
15:12 0.2 °F -4.4 °F 1034.8 in South 4.8 mph 8.0 mph 71 % 0.0 in
15:22 0.2 °F -4.1 °F 1034.8 in SW 6.4 mph 8.0 mph 73 % 0.0 in
15:52 0.3 °F -3.4 °F 1035.1 in Calm   3.2 mph 76 % 0.0 in
15:57 0.4 °F -3.2 °F 1035.1 in SSW 1.6 mph 3.2 mph 77 % 0.0 in
16:02 0.3 °F -3.6 °F 1035.1 in SSW 3.2 mph 3.2 mph 75 % 0.0 in
16:07 0.3 °F -3.8 °F 1035.1 in South 3.2 mph 3.2 mph 74 % 0.0 in
16:12 0.3 °F -3.4 °F 1035.1 in South 1.6 mph 4.8 mph 76 % 0.0 in
16:22 0.3 °F -3.4 °F 1035.1 in SSW 3.2 mph 4.8 mph 76 % 0.0 in
16:27 0.3 °F -3.6 °F 1035.1 in SSW 1.6 mph 4.8 mph 75 % 0.0 in
16:37 0.3 °F -3.4 °F 1035.1 in SSW 4.8 mph 4.8 mph 76 % 0.0 in
16:42 0.3 °F -3.6 °F 1034.8 in SW 4.8 mph 6.4 mph 75 % 0.0 in
16:52 0.3 °F -3.4 °F 1035.1 in SSW 3.2 mph 6.4 mph 76 % 0.0 in
16:57 0.2 °F -3.7 °F 1035.1 in SSW 3.2 mph 6.4 mph 75 % 0.0 in
17:02 0.2 °F -3.4 °F 1035.1 in South 1.6 mph 6.4 mph 77 % 0.0 in
17:07 0.2 °F -3.4 °F 1034.8 in SSW 1.6 mph 6.4 mph 77 % 0.0 in
17:17 0.1 °F -3.1 °F 1035.1 in Calm   6.4 mph 79 % 0.0 in
17:22 0.0 °F -2.9 °F 1034.8 in Calm   4.8 mph 81 % 0.0 in
17:27 0.0 °F -2.7 °F 1034.8 in Calm   4.8 mph 82 % 0.0 in
17:37 -0.1 °F -2.8 °F 1035.1 in Calm   1.6 mph 82 % 0.0 in
17:47 -0.1 °F -2.6 °F 1035.1 in Calm   1.6 mph 83 % 0.0 in
17:52 -0.1 °F -2.8 °F 1034.8 in Calm   1.6 mph 82 % 0.0 in
18:02 -0.1 °F -3.0 °F 1034.8 in Calm   1.6 mph 81 % 0.0 in
18:07 0.0 °F -2.9 °F 1034.8 in Calm   1.6 mph 81 % 0.0 in
18:12 0.0 °F -2.7 °F 1034.8 in Calm   1.6 mph 82 % 0.0 in
18:22 0.2 °F -1.9 °F 1034.8 in West 3.2 mph 8.0 mph 86 % 0.0 in
18:32 0.1 °F -1.8 °F 1034.8 in WSW 3.2 mph 11.3 mph 87 % 0.0 in
18:42 -0.3 °F -1.7 °F 1034.8 in SW 3.2 mph 11.3 mph 90 % 0.0 in
18:47 -0.4 °F -1.5 °F 1034.8 in West 4.8 mph 8.0 mph 92 % 0.0 in
19:07 -0.6 °F -1.6 °F 1034.8 in West 1.6 mph 6.4 mph 93 % 0.0 in
19:12 -0.6 °F -1.6 °F 1034.8 in Calm   8.0 mph 93 % 0.0 in
19:22 -0.7 °F -1.7 °F 1034.8 in WSW 1.6 mph 6.4 mph 93 % 0.0 in
19:27 -0.7 °F -1.7 °F 1034.8 in West 3.2 mph 6.4 mph 93 % 0.0 in
19:32 -0.6 °F -1.6 °F 1034.8 in WSW 1.6 mph 6.4 mph 93 % 0.0 in
19:37 -0.6 °F -1.6 °F 1034.8 in WSW 1.6 mph 6.4 mph 93 % 0.0 in
19:42 -0.6 °F -1.7 °F 1034.8 in SW 3.2 mph 4.8 mph 92 % 0.0 in
19:47 -0.6 °F -1.7 °F 1034.8 in WSW 1.6 mph 4.8 mph 92 % 0.0 in
19:57 -0.6 °F -2.0 °F 1034.8 in SSW 3.2 mph 8.0 mph 90 % 0.0 in
20:07 -0.4 °F -2.0 °F 1034.8 in SW 1.6 mph 6.4 mph 89 % 0.0 in
20:12 -0.4 °F -2.1 °F 1034.8 in SW 1.6 mph 6.4 mph 88 % 0.0 in
20:17 -0.4 °F -2.1 °F 1034.8 in SW 3.2 mph 6.4 mph 88 % 0.0 in
20:22 -0.4 °F -2.3 °F 1034.8 in SSW 1.6 mph 4.8 mph 87 % 0.0 in
20:27 -0.3 °F -2.2 °F 1034.8 in SW 1.6 mph 4.8 mph 87 % 0.0 in
20:37 -0.2 °F -2.3 °F 1034.8 in WSW 9.7 mph 9.7 mph 86 % 0.0 in
20:47 -0.1 °F -2.2 °F 1034.8 in SW 3.2 mph 11.3 mph 86 % 0.0 in
20:52 -0.2 °F -2.1 °F 1034.8 in SW 3.2 mph 11.3 mph 87 % 0.0 in
21:02 -0.2 °F -2.1 °F 1034.8 in WSW 6.4 mph 11.3 mph 87 % 0.0 in
21:12 -0.2 °F -2.1 °F 1034.4 in WSW 3.2 mph 14.5 mph 87 % 0.0 in
21:17 -0.2 °F -2.1 °F 1034.4 in West 9.7 mph 12.9 mph 87 % 0.0 in
21:22 -0.2 °F -1.8 °F 1034.4 in WSW 6.4 mph 12.9 mph 89 % 0.0 in
21:27 -0.2 °F -1.6 °F 1034.4 in WSW 1.6 mph 11.3 mph 90 % 0.0 in
21:32 -0.3 °F -1.6 °F 1034.4 in Calm   9.7 mph 91 % 0.0 in
21:37 -0.3 °F -1.6 °F 1034.4 in SW 3.2 mph 8.0 mph 91 % 0.0 in
21:42 -0.3 °F -1.6 °F 1034.4 in Calm   6.4 mph 91 % 0.0 in
21:47 -0.3 °F -1.4 °F 1034.4 in Calm   9.7 mph 92 % 0.0 in
21:52 -0.3 °F -1.4 °F 1034.4 in West 3.2 mph 9.7 mph 92 % 0.0 in
21:57 -0.2 °F -1.5 °F 1034.4 in West 4.8 mph 9.7 mph 91 % 0.0 in
22:07 -0.2 °F -1.5 °F 1034.4 in WSW 3.2 mph 8.0 mph 91 % 0.0 in
22:12 -0.2 °F -1.6 °F 1034.4 in Calm   8.0 mph 90 % 0.0 in
22:17 -0.2 °F -1.6 °F 1034.4 in WSW 3.2 mph 6.4 mph 90 % 0.0 in
22:22 -0.2 °F -1.6 °F 1034.4 in SW 1.6 mph 8.0 mph 90 % 0.0 in
22:32 -0.3 °F -1.7 °F 1034.4 in Calm   8.0 mph 90 % 0.0 in
22:37 -0.3 °F -1.6 °F 1034.4 in West 1.6 mph 4.8 mph 91 % 0.0 in
22:47 -0.4 °F -1.5 °F 1034.4 in WSW 1.6 mph 6.4 mph 92 % 0.0 in
22:52 -0.4 °F -1.4 °F 1034.4 in WSW 4.8 mph 6.4 mph 93 % 0.0 in
22:57 -0.5 °F -1.5 °F 1034.4 in WSW 1.6 mph 9.7 mph 93 % 0.0 in
23:07 -0.6 °F -1.4 °F 1033.7 in SSW 6.4 mph 9.7 mph 94 % 0.0 in
23:12 -0.6 °F -1.3 °F 1034.1 in WSW 3.2 mph 9.7 mph 95 % 0.0 in
23:17 -0.6 °F -1.3 °F 1034.1 in WSW 3.2 mph 9.7 mph 95 % 0.0 in
23:27 -0.6 °F -1.3 °F 1034.1 in Calm   8.0 mph 95 % 0.0 in
23:32 -0.5 °F -1.2 °F 1034.1 in WSW 1.6 mph 4.8 mph 95 % 0.0 in
23:37 -0.4 °F -1.1 °F 1034.1 in Calm   4.8 mph 95 % 0.0 in
23:42 -0.4 °F -1.1 °F 1034.1 in SW 3.2 mph 4.8 mph 95 % 0.0 in
23:52 -0.3 °F -1.0 °F 1034.1 in Calm   3.2 mph 95 % 0.0 in
Meteo18
Compliments of Weather Underground - 4 mb

Script developed by  Jim McMurry - jmcmurry@mwt.net Adapted for the template by  Wim van der Kuil - Leuven-Template.eu

You find our weather info also at:

European Weather Network

Weather Underground

Equipment we use:

Weather-station
Davis Vue

Weather-program
Meteobridge

Weather-server
Raspberry PI 2 B+

Provider
1 and 1

Davis Vue

Meteobridge

Raspberry PI 2 B+

1 and 1